Time;durP1;ratioP1;P1;durP2;ratioP2;P2;SDS_P1;SDS_P2;PMS_P1;PMS_P2;Temp;Humidity;BMP_temperature;BMP_pressure;BME280_temperature;BME280_humidity;BME280_pressure;Samples;Min_cycle;Max_cycle;Signal;HPM_P1;HPM_P2
2022/10/21 00:01:55;;;;;;;4.10;2.20;;;;;;;;;;105729;1287;22528;-24
2022/10/21 00:04:28;;;;;;;4.40;2.40;;;;;;;;;;105655;1288;22470;-24
2022/10/21 00:07:00;;;;;;;4.10;2.30;;;;;;;;;;105725;1295;22574;-24
2022/10/21 00:09:32;;;;;;;4.60;2.60;;;;;;;;;;105737;1282;22518;-25
2022/10/21 00:12:04;;;;;;;4.20;2.40;;;;;;;;;;105728;1296;22575;-25
2022/10/21 00:14:36;;;;;;;4.10;2.10;;;;;;;;;;105668;1294;22472;-25
2022/10/21 00:17:08;;;;;;;4.80;2.70;;;;;;;;;;105705;1295;22455;-25
2022/10/21 00:19:41;;;;;;;4.70;2.40;;;;;;;;;;105689;1288;22465;-25
2022/10/21 00:22:15;;;;;;;4.40;2.40;;;;;;;;;;105728;1295;22475;-25
2022/10/21 00:24:48;;;;;;;4.30;2.40;;;;;;;;;;105676;1292;22521;-25
2022/10/21 00:27:19;;;;;;;4.50;2.40;;;;;;;;;;105718;1292;22472;-25
2022/10/21 00:29:54;;;;;;;5.30;2.70;;;;;;;;;;105692;1286;22541;-25
2022/10/21 00:32:26;;;;;;;4.30;2.30;;;;;;;;;;105720;1289;22467;-25
2022/10/21 00:34:58;;;;;;;4.80;2.60;;;;;;;;;;105692;1289;22469;-25
2022/10/21 00:37:32;;;;;;;4.80;2.80;;;;;;;;;;105704;1283;24321;-25
2022/10/21 00:40:05;;;;;;;4.10;2.40;;;;;;;;;;105753;1296;22488;-25
2022/10/21 00:42:43;;;;;;;4.50;2.60;;;;;;;;;;105726;1294;22469;-25
2022/10/21 00:45:22;;;;;;;4.80;2.60;;;;;;;;;;105699;1289;22455;-25
2022/10/21 00:48:02;;;;;;;4.80;2.90;;;;;;;;;;105709;1295;22466;-25
2022/10/21 00:50:38;;;;;;;4.40;2.20;;;;;;;;;;105697;1283;22514;-25
2022/10/21 00:53:14;;;;;;;4.90;2.40;;;;;;;;;;105735;1294;22468;-25
2022/10/21 00:55:52;;;;;;;5.20;2.70;;;;;;;;;;105694;1294;22745;-25
2022/10/21 00:58:29;;;;;;;4.80;3.00;;;;;;;;;;105724;1295;22475;-25
2022/10/21 01:01:05;;;;;;;4.30;2.50;;;;;;;;;;105705;1281;22732;-25
2022/10/21 01:03:37;;;;;;;4.60;2.50;;;;;;;;;;105727;1294;22508;-25
2022/10/21 01:06:13;;;;;;;5.10;2.70;;;;;;;;;;105694;1289;22475;-25
2022/10/21 01:08:45;;;;;;;4.80;2.60;;;;;;;;;;105702;1294;22476;-25
2022/10/21 01:11:20;;;;;;;4.70;2.40;;;;;;;;;;105722;1295;22479;-25
2022/10/21 01:14:19;;;;;;;4.70;2.50;;;;;;;;;;105737;1294;24503;-25
2022/10/21 01:17:06;;;;;;;5.10;2.80;;;;;;;;;;105666;1295;22933;-25
2022/10/21 01:20:18;;;;;;;4.80;2.50;;;;;;;;;;105709;1299;22514;-25
2022/10/21 01:23:26;;;;;;;4.50;2.60;;;;;;;;;;105499;1279;22488;-25
2022/10/21 01:26:25;;;;;;;4.90;2.90;;;;;;;;;;105447;1294;22878;-25
2022/10/21 01:29:23;;;;;;;5.10;2.70;;;;;;;;;;105731;1295;22507;-25
2022/10/21 01:32:06;;;;;;;5.20;2.90;;;;;;;;;;105691;1287;22461;-25
2022/10/21 01:34:48;;;;;;;4.70;2.60;;;;;;;;;;105733;1294;25247;-25
2022/10/21 01:37:27;;;;;;;4.70;2.60;;;;;;;;;;105650;1286;23879;-25
2022/10/21 01:40:08;;;;;;;4.80;2.90;;;;;;;;;;105704;1292;22479;-25
2022/10/21 01:42:46;;;;;;;5.00;2.90;;;;;;;;;;105778;1278;22834;-25
2022/10/21 01:45:24;;;;;;;4.70;2.70;;;;;;;;;;105715;1295;22476;-25
2022/10/21 01:48:03;;;;;;;4.80;2.70;;;;;;;;;;105720;1294;22474;-25
2022/10/21 01:50:41;;;;;;;4.50;2.70;;;;;;;;;;105711;1288;22862;-25
2022/10/21 01:53:17;;;;;;;4.90;2.90;;;;;;;;;;105715;1275;22498;-25
2022/10/21 01:55:51;;;;;;;4.60;2.70;;;;;;;;;;105681;1283;22489;-25
2022/10/21 01:58:26;;;;;;;5.30;3.00;;;;;;;;;;105717;1286;22476;-25
2022/10/21 02:01:03;;;;;;;5.60;3.50;;;;;;;;;;105750;1294;22690;-25
2022/10/21 02:03:42;;;;;;;5.20;2.80;;;;;;;;;;105747;1295;22500;-25
2022/10/21 02:06:15;;;;;;;5.00;3.10;;;;;;;;;;105672;1294;22460;-25
2022/10/21 02:08:49;;;;;;;5.20;3.00;;;;;;;;;;105726;1288;24506;-25
2022/10/21 02:11:22;;;;;;;4.70;2.70;;;;;;;;;;105749;1282;22468;-25
2022/10/21 02:13:59;;;;;;;4.70;2.90;;;;;;;;;;105720;1295;22493;-25
2022/10/21 02:16:35;;;;;;;5.10;3.00;;;;;;;;;;105674;1288;25258;-25
2022/10/21 02:19:14;;;;;;;4.70;2.90;;;;;;;;;;105721;1285;22521;-25
2022/10/21 02:21:49;;;;;;;5.10;3.30;;;;;;;;;;105739;1294;22515;-25
2022/10/21 02:24:30;;;;;;;5.50;3.20;;;;;;;;;;105734;1295;22766;-25
2022/10/21 02:27:02;;;;;;;5.20;3.30;;;;;;;;;;105683;1294;22492;-25
2022/10/21 02:29:39;;;;;;;5.00;3.10;;;;;;;;;;105721;1295;22506;-25
2022/10/21 02:32:28;;;;;;;5.20;3.20;;;;;;;;;;105507;1301;22695;-25
2022/10/21 02:35:19;;;;;;;5.20;3.30;;;;;;;;;;105739;1281;22514;-25
2022/10/21 02:37:59;;;;;;;5.00;3.10;;;;;;;;;;105678;1289;22503;-25
2022/10/21 02:40:36;;;;;;;5.00;3.10;;;;;;;;;;105726;1290;23829;-25
2022/10/21 02:43:12;;;;;;;5.30;3.30;;;;;;;;;;105720;1295;22712;-25
2022/10/21 02:45:47;;;;;;;5.20;3.50;;;;;;;;;;105699;1289;22468;-25
2022/10/21 02:48:19;;;;;;;5.70;3.20;;;;;;;;;;105695;1295;22576;-25
2022/10/21 02:50:51;;;;;;;5.40;3.30;;;;;;;;;;105683;1294;22441;-25
2022/10/21 02:53:23;;;;;;;5.90;3.50;;;;;;;;;;105731;1289;22485;-25
2022/10/21 02:55:56;;;;;;;5.50;3.40;;;;;;;;;;105523;1298;22514;-25
2022/10/21 02:58:29;;;;;;;4.90;3.10;;;;;;;;;;105678;1286;22486;-25
2022/10/21 03:01:01;;;;;;;5.10;3.00;;;;;;;;;;105723;1294;22416;-25
2022/10/21 03:03:33;;;;;;;5.90;3.50;;;;;;;;;;105687;1294;22485;-25
2022/10/21 03:06:05;;;;;;;5.40;3.10;;;;;;;;;;105701;1295;23648;-25
2022/10/21 03:08:38;;;;;;;5.10;3.00;;;;;;;;;;105678;1288;25312;-25
2022/10/21 03:11:10;;;;;;;5.20;3.20;;;;;;;;;;105707;1295;22504;-25
2022/10/21 03:13:42;;;;;;;5.30;3.10;;;;;;;;;;105708;1294;22512;-25
2022/10/21 03:16:14;;;;;;;5.10;3.30;;;;;;;;;;105737;1298;22476;-25
2022/10/21 03:18:46;;;;;;;5.10;3.30;;;;;;;;;;105684;1294;22463;-25
2022/10/21 03:21:18;;;;;;;5.40;3.40;;;;;;;;;;105714;1290;25458;-25
2022/10/21 03:23:50;;;;;;;5.70;3.70;;;;;;;;;;105702;1282;23854;-25
2022/10/21 03:26:22;;;;;;;5.60;3.50;;;;;;;;;;105698;1278;22484;-25
2022/10/21 03:28:54;;;;;;;5.20;3.30;;;;;;;;;;105695;1289;22506;-25
2022/10/21 03:31:29;;;;;;;5.80;3.50;;;;;;;;;;105725;1295;22418;-25
2022/10/21 03:34:01;;;;;;;5.70;3.40;;;;;;;;;;105694;1288;22488;-25
2022/10/21 03:36:33;;;;;;;5.50;3.40;;;;;;;;;;105714;1276;22612;-25
2022/10/21 03:39:05;;;;;;;5.50;3.50;;;;;;;;;;105654;1296;22530;-25
2022/10/21 03:41:37;;;;;;;5.60;3.40;;;;;;;;;;105714;1294;22458;-25
2022/10/21 03:44:09;;;;;;;5.70;3.40;;;;;;;;;;105738;1292;22529;-25
2022/10/21 03:46:41;;;;;;;5.50;3.40;;;;;;;;;;105708;1282;22479;-25
2022/10/21 03:49:14;;;;;;;5.40;3.40;;;;;;;;;;105648;1286;22486;-25
2022/10/21 03:51:46;;;;;;;4.90;3.20;;;;;;;;;;105715;1285;22458;-25
2022/10/21 03:54:18;;;;;;;6.20;3.80;;;;;;;;;;105688;1288;22461;-25
2022/10/21 03:56:49;;;;;;;;;;;;;;;;;;105715;1289;22456;-25
2022/10/21 03:59:21;;;;;;;5.50;3.50;;;;;;;;;;105680;1286;22449;-25
2022/10/21 04:01:53;;;;;;;5.80;3.40;;;;;;;;;;105728;1294;22447;-25
2022/10/21 04:04:25;;;;;;;6.60;4.00;;;;;;;;;;105676;1288;22486;-25
2022/10/21 04:06:57;;;;;;;5.00;3.30;;;;;;;;;;105707;1288;22452;-25
2022/10/21 04:09:30;;;;;;;5.20;3.60;;;;;;;;;;105663;1294;22472;-25
2022/10/21 04:12:02;;;;;;;5.90;3.50;;;;;;;;;;105741;1296;23806;-25
2022/10/21 04:14:34;;;;;;;5.10;3.60;;;;;;;;;;105702;1289;22468;-25
2022/10/21 04:17:06;;;;;;;5.40;3.40;;;;;;;;;;105735;1295;22466;-25
2022/10/21 04:19:39;;;;;;;6.40;3.50;;;;;;;;;;105708;1298;22501;-25
2022/10/21 04:22:11;;;;;;;5.90;3.90;;;;;;;;;;105707;1295;22489;-25
2022/10/21 04:24:43;;;;;;;6.30;4.10;;;;;;;;;;105726;1286;22473;-25
2022/10/21 04:27:15;;;;;;;6.00;3.30;;;;;;;;;;105693;1288;25179;-25
2022/10/21 04:29:47;;;;;;;6.10;3.60;;;;;;;;;;105663;1283;22602;-25
2022/10/21 04:32:19;;;;;;;6.80;3.80;;;;;;;;;;105683;1295;22518;-25
2022/10/21 04:34:51;;;;;;;5.60;3.70;;;;;;;;;;105753;1295;22464;-25
2022/10/21 04:37:23;;;;;;;6.20;3.60;;;;;;;;;;105695;1286;22478;-25
2022/10/21 04:39:56;;;;;;;6.40;3.60;;;;;;;;;;105664;1282;22631;-25
2022/10/21 04:42:26;;;;;;;;;;;;;;;;;;105718;1294;22521;-25
2022/10/21 04:44:58;;;;;;;6.10;3.40;;;;;;;;;;105733;1289;23027;-25
2022/10/21 04:47:30;;;;;;;6.10;3.40;;;;;;;;;;105732;1290;23868;-25
2022/10/21 04:50:02;;;;;;;5.60;3.30;;;;;;;;;;105638;1275;22501;-25
2022/10/21 04:52:34;;;;;;;6.30;3.80;;;;;;;;;;105707;1295;22519;-25
2022/10/21 04:55:09;;;;;;;6.00;3.60;;;;;;;;;;105698;1290;22479;-25
2022/10/21 04:57:41;;;;;;;6.20;4.20;;;;;;;;;;105735;1294;22475;-25
2022/10/21 05:00:15;;;;;;;6.10;3.70;;;;;;;;;;105711;1288;22723;-25
2022/10/21 05:02:49;;;;;;;6.70;4.10;;;;;;;;;;105728;1289;22468;-25
2022/10/21 05:05:22;;;;;;;6.40;3.60;;;;;;;;;;105697;1291;22462;-25
2022/10/21 05:07:53;;;;;;;6.20;4.00;;;;;;;;;;105723;1294;22611;-25
2022/10/21 05:10:25;;;;;;;7.20;4.80;;;;;;;;;;105702;1289;22578;-25
2022/10/21 05:12:58;;;;;;;6.60;4.20;;;;;;;;;;105745;1295;25250;-25
2022/10/21 05:15:30;;;;;;;6.10;4.00;;;;;;;;;;105721;1294;22811;-25
2022/10/21 05:18:02;;;;;;;6.80;4.30;;;;;;;;;;105724;1285;22476;-25
2022/10/21 05:20:34;;;;;;;6.50;3.90;;;;;;;;;;105678;1295;22441;-25
2022/10/21 05:23:06;;;;;;;6.60;4.20;;;;;;;;;;105694;1295;22508;-25
2022/10/21 05:25:38;;;;;;;6.90;4.30;;;;;;;;;;105727;1294;22464;-25
2022/10/21 05:28:10;;;;;;;6.80;4.40;;;;;;;;;;105699;1282;22657;-25
2022/10/21 05:30:42;;;;;;;6.50;4.20;;;;;;;;;;105705;1296;22550;-25
2022/10/21 05:33:14;;;;;;;7.40;4.20;;;;;;;;;;105709;1294;22551;-25
2022/10/21 05:35:56;;;;;;;7.00;4.40;;;;;;;;;;105705;1292;23955;-25
2022/10/21 05:38:31;;;;;;;6.40;4.30;;;;;;;;;;105718;1290;22617;-24
2022/10/21 05:41:03;;;;;;;7.40;4.50;;;;;;;;;;105671;1294;22471;-24
2022/10/21 05:43:35;;;;;;;7.20;4.20;;;;;;;;;;105704;1281;22483;-25
2022/10/21 05:46:10;;;;;;;6.30;4.40;;;;;;;;;;105715;1295;22474;-24
2022/10/21 05:48:42;;;;;;;6.40;4.10;;;;;;;;;;105717;1289;23795;-25
2022/10/21 05:51:14;;;;;;;6.90;4.50;;;;;;;;;;105665;1289;23796;-25
2022/10/21 05:53:46;;;;;;;7.80;4.40;;;;;;;;;;105695;1289;22477;-25
2022/10/21 05:56:18;;;;;;;5.80;4.20;;;;;;;;;;105701;1289;22477;-25
2022/10/21 05:58:50;;;;;;;;;;;;;;;;;;105752;1284;22455;-25
2022/10/21 06:01:24;;;;;;;5.90;3.90;;;;;;;;;;105709;1289;22454;-25
2022/10/21 06:03:56;;;;;;;7.30;4.60;;;;;;;;;;105706;1295;22521;-25
2022/10/21 06:06:27;;;;;;;6.10;4.00;;;;;;;;;;105700;1287;22461;-26
2022/10/21 06:09:00;;;;;;;6.80;4.00;;;;;;;;;;105732;1282;22659;-26
2022/10/21 06:11:32;;;;;;;6.30;4.20;;;;;;;;;;105674;1289;25404;-25
2022/10/21 06:14:04;;;;;;;7.00;4.30;;;;;;;;;;105721;1279;22474;-27
2022/10/21 06:16:36;;;;;;;7.20;4.50;;;;;;;;;;105702;1294;22444;-26
2022/10/21 06:19:08;;;;;;;6.60;4.10;;;;;;;;;;105725;1295;22514;-26
2022/10/21 06:21:40;;;;;;;;;;;;;;;;;;105693;1282;22446;-26
2022/10/21 06:24:12;;;;;;;5.50;3.80;;;;;;;;;;105740;1296;22549;-26
2022/10/21 06:26:44;;;;;;;5.40;3.60;;;;;;;;;;105711;1296;22522;-26
2022/10/21 06:29:16;;;;;;;6.10;4.10;;;;;;;;;;105743;1285;22443;-26
2022/10/21 06:31:51;;;;;;;6.30;4.00;;;;;;;;;;105661;1289;22761;-26
2022/10/21 06:34:23;;;;;;;6.20;4.20;;;;;;;;;;105729;1292;22466;-27
2022/10/21 06:36:55;;;;;;;6.30;4.20;;;;;;;;;;105690;1293;25233;-26
2022/10/21 06:39:27;;;;;;;6.30;4.00;;;;;;;;;;105531;1288;285731;-26
2022/10/21 06:42:00;;;;;;;6.80;4.60;;;;;;;;;;105702;1294;25300;-27
2022/10/21 06:44:32;;;;;;;7.00;5.00;;;;;;;;;;105720;1288;22433;-27
2022/10/21 06:47:06;;;;;;;6.50;4.30;;;;;;;;;;105704;1287;25266;-26
2022/10/21 06:49:38;;;;;;;6.70;4.60;;;;;;;;;;105753;1290;25848;-27
2022/10/21 06:52:11;;;;;;;7.50;4.50;;;;;;;;;;105723;1289;21718;-27
2022/10/21 06:54:43;;;;;;;6.90;4.50;;;;;;;;;;105731;1295;22576;-27
2022/10/21 06:57:15;;;;;;;8.30;4.70;;;;;;;;;;105733;1294;22512;-26
2022/10/21 06:59:48;;;;;;;7.50;4.70;;;;;;;;;;105692;1294;22479;-27
2022/10/21 07:02:20;;;;;;;6.60;4.80;;;;;;;;;;105660;1295;22592;-27
2022/10/21 07:04:56;;;;;;;8.10;4.90;;;;;;;;;;105500;1297;22478;-27
2022/10/21 07:07:28;;;;;;;7.40;4.40;;;;;;;;;;105716;1286;22500;-27
2022/10/21 07:10:00;;;;;;;7.00;4.70;;;;;;;;;;105713;1289;23812;-27
2022/10/21 07:12:33;;;;;;;7.60;4.80;;;;;;;;;;105682;1290;21709;-27
2022/10/21 07:15:06;;;;;;;6.00;4.10;;;;;;;;;;105712;1292;22514;-27
2022/10/21 07:17:36;;;;;;;;;;;;;;;;;;105754;1295;22450;-27
2022/10/21 07:20:10;;;;;;;6.60;4.40;;;;;;;;;;105701;1289;22561;-27
2022/10/21 07:22:42;;;;;;;6.60;4.30;;;;;;;;;;105672;1295;22494;-27
2022/10/21 07:25:14;;;;;;;6.50;4.70;;;;;;;;;;105739;1286;22467;-26
2022/10/21 07:27:47;;;;;;;6.60;5.00;;;;;;;;;;105727;1295;22465;-26
2022/10/21 07:30:20;;;;;;;7.70;5.00;;;;;;;;;;105747;1294;22518;-26
2022/10/21 07:32:55;;;;;;;8.30;5.10;;;;;;;;;;105690;1289;26151;-26
2022/10/21 07:35:27;;;;;;;7.20;5.00;;;;;;;;;;105691;1279;22573;-26
2022/10/21 07:37:59;;;;;;;6.90;4.70;;;;;;;;;;105748;1289;22475;-26
2022/10/21 07:40:32;;;;;;;7.40;4.70;;;;;;;;;;105702;1295;22500;-26
2022/10/21 07:43:06;;;;;;;7.10;5.00;;;;;;;;;;105685;1298;22497;-26
2022/10/21 07:45:41;;;;;;;7.20;5.40;;;;;;;;;;105740;1289;25559;-26
2022/10/21 07:48:14;;;;;;;7.40;5.40;;;;;;;;;;105723;1289;22557;-26
2022/10/21 07:50:46;;;;;;;8.00;5.50;;;;;;;;;;105736;1282;25615;-26
2022/10/21 07:53:19;;;;;;;7.50;5.10;;;;;;;;;;105672;1285;21669;-26
2022/10/21 07:55:53;;;;;;;7.30;5.70;;;;;;;;;;105719;1285;22533;-26
2022/10/21 07:58:25;;;;;;;8.90;5.60;;;;;;;;;;105698;1294;22465;-26
2022/10/21 08:01:02;;;;;;;8.80;5.50;;;;;;;;;;105737;1289;23801;-26
2022/10/21 08:03:36;;;;;;;6.90;5.20;;;;;;;;;;105681;1292;22548;-26
2022/10/21 08:06:09;;;;;;;8.00;6.00;;;;;;;;;;105718;1295;22486;-26
2022/10/21 08:08:42;;;;;;;7.40;5.80;;;;;;;;;;105754;1295;22472;-26
2022/10/21 08:11:22;;;;;;;8.30;5.50;;;;;;;;;;105708;1289;22456;-26
2022/10/21 08:13:57;;;;;;;7.00;5.50;;;;;;;;;;105716;1294;22825;-26
2022/10/21 08:16:29;;;;;;;9.40;5.50;;;;;;;;;;105759;1286;22475;-27
2022/10/21 08:19:05;;;;;;;7.30;5.90;;;;;;;;;;105755;1295;22493;-26
2022/10/21 08:21:37;;;;;;;7.50;5.70;;;;;;;;;;105737;1294;22461;-26
2022/10/21 08:24:10;;;;;;;7.90;6.00;;;;;;;;;;105675;1290;22497;-26
2022/10/21 08:26:42;;;;;;;9.20;6.20;;;;;;;;;;105695;1301;22645;-26
2022/10/21 08:29:14;;;;;;;7.60;5.60;;;;;;;;;;105725;1289;22474;-26
2022/10/21 08:31:46;;;;;;;8.40;6.40;;;;;;;;;;105738;1293;22463;-26
2022/10/21 08:34:18;;;;;;;8.80;6.10;;;;;;;;;;105731;1296;22464;-26
2022/10/21 08:36:51;;;;;;;8.20;5.90;;;;;;;;;;105744;1287;22489;-26
2022/10/21 08:39:24;;;;;;;7.70;5.90;;;;;;;;;;105686;1294;22491;-26
2022/10/21 08:42:11;;;;;;;7.50;5.60;;;;;;;;;;105712;1285;22485;-26
2022/10/21 08:44:55;;;;;;;8.70;5.80;;;;;;;;;;105690;1282;22491;-27
2022/10/21 08:47:35;;;;;;;9.40;6.20;;;;;;;;;;105696;1290;22544;-27
2022/10/21 08:50:14;;;;;;;8.90;5.70;;;;;;;;;;105700;1288;25384;-27
2022/10/21 08:52:49;;;;;;;9.00;6.00;;;;;;;;;;105718;1273;26638;-27
2022/10/21 08:55:27;;;;;;;9.90;5.90;;;;;;;;;;105678;1292;22471;-27
2022/10/21 08:57:59;;;;;;;7.70;5.50;;;;;;;;;;105753;1294;24220;-27
2022/10/21 09:00:35;;;;;;;8.30;5.40;;;;;;;;;;105724;1289;25395;-27
2022/10/21 09:03:23;;;;;;;7.90;5.40;;;;;;;;;;105703;1292;23285;-27
2022/10/21 09:06:13;;;;;;;8.10;5.70;;;;;;;;;;105711;1294;22472;-27
2022/10/21 09:09:08;;;;;;;8.50;5.40;;;;;;;;;;105705;1290;22875;-27
2022/10/21 09:11:55;;;;;;;9.10;5.90;;;;;;;;;;105704;1284;22463;-27
2022/10/21 09:14:50;;;;;;;9.30;5.60;;;;;;;;;;105663;1280;23776;-27
2022/10/21 09:17:51;;;;;;;7.80;5.50;;;;;;;;;;105705;1298;22552;-27
2022/10/21 09:20:39;;;;;;;7.50;5.70;;;;;;;;;;105732;1287;22477;-27
2022/10/21 09:23:35;;;;;;;7.80;5.40;;;;;;;;;;105738;1296;22485;-27
2022/10/21 09:26:18;;;;;;;7.60;5.50;;;;;;;;;;105668;1294;22480;-27
2022/10/21 09:28:52;;;;;;;7.90;5.60;;;;;;;;;;105706;1295;22498;-27
2022/10/21 09:31:28;;;;;;;8.00;5.40;;;;;;;;;;105708;1286;22487;-27
2022/10/21 09:34:04;;;;;;;7.30;5.60;;;;;;;;;;105693;1295;22475;-27
2022/10/21 09:36:46;;;;;;;8.30;5.20;;;;;;;;;;105673;1289;23972;-27
2022/10/21 09:39:24;;;;;;;6.70;4.90;;;;;;;;;;105763;1294;21658;-27
2022/10/21 09:42:00;;;;;;;7.00;5.00;;;;;;;;;;105704;1295;22485;-27
2022/10/21 09:44:33;;;;;;;7.10;4.90;;;;;;;;;;105703;1288;25457;-27
2022/10/21 09:47:19;;;;;;;7.00;5.00;;;;;;;;;;105656;1288;25405;-27
2022/10/21 09:49:56;;;;;;;8.80;5.60;;;;;;;;;;105706;1282;23100;-27
2022/10/21 09:52:34;;;;;;;6.80;4.80;;;;;;;;;;105682;1289;22505;-27
2022/10/21 09:55:12;;;;;;;7.10;4.90;;;;;;;;;;105650;1294;22484;-27
2022/10/21 09:57:51;;;;;;;6.80;5.00;;;;;;;;;;105727;1295;22475;-27
2022/10/21 10:00:23;;;;;;;7.20;4.70;;;;;;;;;;105730;1296;22472;-27
2022/10/21 10:02:55;;;;;;;6.40;4.90;;;;;;;;;;105710;1296;22486;-27
2022/10/21 10:05:46;;;;;;;7.40;5.10;;;;;;;;;;105658;1295;22502;-27
2022/10/21 10:08:33;;;;;;;6.80;5.20;;;;;;;;;;105695;1301;22515;-27
2022/10/21 10:11:19;;;;;;;7.70;5.20;;;;;;;;;;105727;1289;22480;-27
2022/10/21 10:13:53;;;;;;;6.80;5.00;;;;;;;;;;105726;1292;22481;-27
2022/10/21 10:16:34;;;;;;;6.90;4.50;;;;;;;;;;105687;1295;22514;-27
2022/10/21 10:19:20;;;;;;;6.80;4.80;;;;;;;;;;105732;1288;24336;-27
2022/10/21 10:22:14;;;;;;;6.50;4.90;;;;;;;;;;105729;1279;25233;-27
2022/10/21 10:24:47;;;;;;;6.40;4.90;;;;;;;;;;105773;1296;22478;-27
2022/10/21 10:27:25;;;;;;;6.90;4.90;;;;;;;;;;105688;1296;23847;-27
2022/10/21 10:30:00;;;;;;;6.60;4.50;;;;;;;;;;105543;1298;22475;-27
2022/10/21 10:32:36;;;;;;;6.10;4.40;;;;;;;;;;105745;1289;23932;-27
2022/10/21 10:35:21;;;;;;;6.20;4.60;;;;;;;;;;105700;1295;22958;-27
2022/10/21 10:37:57;;;;;;;6.20;4.30;;;;;;;;;;105666;1288;22663;-27
2022/10/21 10:40:38;;;;;;;6.70;4.70;;;;;;;;;;105716;1288;22513;-27
2022/10/21 10:43:18;;;;;;;6.40;4.50;;;;;;;;;;105706;1289;23804;-27
2022/10/21 10:45:58;;;;;;;7.10;5.00;;;;;;;;;;105719;1301;22663;-27
2022/10/21 10:48:38;;;;;;;6.30;4.50;;;;;;;;;;105693;1282;22485;-27
2022/10/21 10:51:28;;;;;;;6.40;4.80;;;;;;;;;;105724;1295;22501;-27
2022/10/21 10:54:18;;;;;;;7.00;4.90;;;;;;;;;;105526;1294;22482;-27
2022/10/21 10:56:57;;;;;;;6.30;4.40;;;;;;;;;;105656;1298;22489;-27
2022/10/21 10:59:37;;;;;;;6.30;4.40;;;;;;;;;;105692;1296;25353;-27
2022/10/21 11:02:37;;;;;;;6.20;4.40;;;;;;;;;;105735;1287;22452;-27
2022/10/21 11:05:22;;;;;;;7.20;4.50;;;;;;;;;;105738;1289;22517;-27
2022/10/21 11:07:57;;;;;;;6.60;4.70;;;;;;;;;;105682;1295;22474;-27
2022/10/21 11:10:37;;;;;;;6.30;4.00;;;;;;;;;;105712;1285;23835;-27
2022/10/21 11:13:17;;;;;;;6.00;4.10;;;;;;;;;;105723;1289;22556;-27
2022/10/21 11:16:31;;;;;;;6.50;4.30;;;;;;;;;;105740;1292;22501;-27
2022/10/21 11:19:11;;;;;;;6.90;4.90;;;;;;;;;;105642;1294;22571;-27
2022/10/21 11:21:52;;;;;;;6.40;4.40;;;;;;;;;;105737;1272;25194;-27
2022/10/21 11:24:49;;;;;;;5.80;4.00;;;;;;;;;;105723;1298;22492;-27
2022/10/21 11:27:37;;;;;;;6.40;4.10;;;;;;;;;;105735;1296;22552;-27
2022/10/21 11:30:18;;;;;;;6.40;4.60;;;;;;;;;;105668;1287;22487;-27
2022/10/21 11:33:03;;;;;;;6.10;4.30;;;;;;;;;;105740;1279;23870;-27
2022/10/21 11:35:50;;;;;;;5.70;4.20;;;;;;;;;;105734;1278;24003;-27
2022/10/21 11:38:53;;;;;;;5.90;4.00;;;;;;;;;;105653;1289;22471;-27
2022/10/21 11:41:33;;;;;;;6.50;4.20;;;;;;;;;;105698;1295;22496;-27
2022/10/21 11:44:23;;;;;;;6.20;4.30;;;;;;;;;;105704;1290;25326;-27
2022/10/21 11:47:08;;;;;;;6.80;4.40;;;;;;;;;;105718;1295;24424;-27
2022/10/21 11:49:54;;;;;;;6.50;4.40;;;;;;;;;;105694;1289;23781;-27
2022/10/21 11:52:40;;;;;;;6.10;3.80;;;;;;;;;;105714;1299;22480;-27
2022/10/21 11:55:34;;;;;;;5.90;4.20;;;;;;;;;;105720;1295;22484;-27
2022/10/21 11:58:23;;;;;;;6.10;4.50;;;;;;;;;;105705;1295;22479;-27
2022/10/21 12:01:06;;;;;;;5.50;4.10;;;;;;;;;;105639;1293;22468;-27
2022/10/21 12:04:07;;;;;;;5.90;4.50;;;;;;;;;;105723;1297;22476;-27
2022/10/21 12:06:49;;;;;;;6.10;4.00;;;;;;;;;;105718;1286;23835;-27
2022/10/21 12:09:28;;;;;;;6.50;4.10;;;;;;;;;;105671;1280;22467;-27
2022/10/21 12:12:07;;;;;;;5.80;4.10;;;;;;;;;;105720;1292;22471;-27
2022/10/21 12:14:43;;;;;;;5.90;4.00;;;;;;;;;;105736;1298;22481;-27
2022/10/21 12:17:21;;;;;;;6.00;3.90;;;;;;;;;;105713;1286;23805;-27
2022/10/21 12:19:59;;;;;;;6.20;4.00;;;;;;;;;;105716;1295;22520;-27
2022/10/21 12:22:34;;;;;;;6.80;4.40;;;;;;;;;;105716;1285;22475;-27
2022/10/21 12:25:23;;;;;;;5.30;3.60;;;;;;;;;;105727;1301;22471;-27
2022/10/21 12:28:03;;;;;;;5.80;3.90;;;;;;;;;;105713;1295;22622;-27
2022/10/21 12:30:43;;;;;;;5.40;3.80;;;;;;;;;;105664;1302;22470;-27
2022/10/21 12:33:28;;;;;;;5.80;3.80;;;;;;;;;;105692;1284;22517;-27
2022/10/21 12:36:35;;;;;;;5.80;3.90;;;;;;;;;;105687;1300;22503;-27
2022/10/21 12:39:12;;;;;;;5.90;3.70;;;;;;;;;;105694;1287;22484;-27
2022/10/21 12:41:46;;;;;;;5.40;3.80;;;;;;;;;;105808;1301;22464;-27
2022/10/21 12:44:30;;;;;;;5.90;4.10;;;;;;;;;;105731;1289;22560;-27
2022/10/21 12:47:23;;;;;;;6.10;4.10;;;;;;;;;;105720;1300;22465;-27
2022/10/21 12:50:22;;;;;;;5.80;4.10;;;;;;;;;;105710;1302;24127;-27
2022/10/21 12:53:24;;;;;;;6.40;3.90;;;;;;;;;;105710;1295;22549;-27
2022/10/21 12:55:59;;;;;;;5.70;4.00;;;;;;;;;;105747;1288;25188;-27
2022/10/21 12:58:38;;;;;;;6.00;3.90;;;;;;;;;;105730;1301;22464;-27
2022/10/21 13:01:42;;;;;;;6.30;3.70;;;;;;;;;;105674;1292;22628;-27
2022/10/21 13:04:54;;;;;;;5.30;3.90;;;;;;;;;;105728;1296;22439;-27
2022/10/21 13:08:27;;;;;;;5.50;4.00;;;;;;;;;;105708;1301;22488;-27
2022/10/21 13:11:25;;;;;;;6.00;4.10;;;;;;;;;;105692;1301;22462;-27
2022/10/21 13:14:29;;;;;;;5.80;3.70;;;;;;;;;;105714;1299;22929;-27
2022/10/21 13:17:45;;;;;;;6.50;4.00;;;;;;;;;;105551;1303;22476;-27
2022/10/21 13:20:48;;;;;;;6.00;3.70;;;;;;;;;;105415;1300;23408;-27
2022/10/21 13:23:45;;;;;;;5.80;3.90;;;;;;;;;;105713;1297;25278;-27
2022/10/21 13:26:29;;;;;;;5.60;3.60;;;;;;;;;;105736;1297;22553;-27
2022/10/21 13:29:22;;;;;;;5.20;3.70;;;;;;;;;;105730;1294;22468;-27
2022/10/21 13:32:25;;;;;;;5.40;3.80;;;;;;;;;;105667;1299;22462;-27
2022/10/21 13:35:26;;;;;;;6.30;4.20;;;;;;;;;;105713;1296;22504;-27
2022/10/21 13:38:04;;;;;;;5.10;3.60;;;;;;;;;;105752;1300;22504;-27
2022/10/21 13:40:46;;;;;;;5.60;3.80;;;;;;;;;;105725;1286;22525;-27
2022/10/21 13:43:27;;;;;;;5.70;3.90;;;;;;;;;;105690;1296;22483;-27
2022/10/21 13:46:12;;;;;;;5.20;4.00;;;;;;;;;;105701;1295;22475;-27
2022/10/21 13:48:47;;;;;;;5.50;3.90;;;;;;;;;;105722;1287;22486;-27
2022/10/21 13:51:24;;;;;;;5.80;4.00;;;;;;;;;;105720;1296;22517;-27
2022/10/21 13:53:59;;;;;;;5.50;3.70;;;;;;;;;;105511;1301;22478;-27
2022/10/21 13:56:35;;;;;;;5.60;3.70;;;;;;;;;;105539;1288;22495;-27
2022/10/21 13:59:20;;;;;;;6.10;4.20;;;;;;;;;;105554;1286;26612;-27
2022/10/21 14:01:55;;;;;;;5.40;3.40;;;;;;;;;;105515;1286;23943;-27
2022/10/21 14:04:30;;;;;;;5.30;3.80;;;;;;;;;;105717;1285;22517;-27
2022/10/21 14:07:07;;;;;;;5.20;3.40;;;;;;;;;;105768;1294;23971;-27
2022/10/21 14:09:44;;;;;;;6.20;3.80;;;;;;;;;;105707;1300;22472;-27
2022/10/21 14:12:25;;;;;;;5.90;3.80;;;;;;;;;;105682;1295;22540;-27
2022/10/21 14:15:04;;;;;;;5.20;3.60;;;;;;;;;;105726;1289;23797;-27
2022/10/21 14:17:38;;;;;;;5.50;4.00;;;;;;;;;;105710;1292;22724;-27
2022/10/21 14:20:18;;;;;;;5.60;4.20;;;;;;;;;;105710;1295;22475;-27
2022/10/21 14:22:53;;;;;;;5.80;3.90;;;;;;;;;;105719;1287;22491;-27
2022/10/21 14:25:25;;;;;;;6.20;4.00;;;;;;;;;;105709;1295;22463;-27
2022/10/21 14:28:01;;;;;;;5.10;3.70;;;;;;;;;;105743;1285;22476;-27
2022/10/21 14:30:35;;;;;;;5.20;3.90;;;;;;;;;;105711;1295;22765;-27
2022/10/21 14:33:14;;;;;;;5.50;3.60;;;;;;;;;;105718;1301;25195;-27
2022/10/21 14:35:46;;;;;;;5.30;3.30;;;;;;;;;;105748;1296;22756;-27
2022/10/21 14:38:38;;;;;;;5.80;3.70;;;;;;;;;;105466;1295;326899;-27
2022/10/21 14:41:18;;;;;;;5.40;4.00;;;;;;;;;;105739;1288;22478;-27
2022/10/21 14:43:52;;;;;;;5.90;3.60;;;;;;;;;;105689;1282;22485;-27
2022/10/21 14:46:24;;;;;;;5.60;3.80;;;;;;;;;;105737;1278;22479;-27
2022/10/21 14:49:02;;;;;;;5.60;3.70;;;;;;;;;;105734;1295;23872;-27
2022/10/21 14:51:38;;;;;;;5.70;3.70;;;;;;;;;;105696;1296;23955;-27
2022/10/21 14:54:25;;;;;;;5.40;3.60;;;;;;;;;;105686;1289;23981;-27
2022/10/21 14:56:58;;;;;;;5.80;3.90;;;;;;;;;;105693;1301;22496;-27
2022/10/21 14:59:38;;;;;;;5.20;3.60;;;;;;;;;;105730;1296;22482;-27
2022/10/21 15:02:20;;;;;;;5.70;3.80;;;;;;;;;;105727;1298;23754;-27
2022/10/21 15:04:55;;;;;;;5.00;3.40;;;;;;;;;;105682;1286;25584;-27
2022/10/21 15:07:31;;;;;;;5.60;3.50;;;;;;;;;;105699;1290;22430;-27
2022/10/21 15:10:19;;;;;;;5.30;3.70;;;;;;;;;;105706;1295;22468;-27
2022/10/21 15:12:55;;;;;;;4.80;3.40;;;;;;;;;;105746;1289;25355;-27
2022/10/21 15:15:49;;;;;;;5.70;3.60;;;;;;;;;;105677;1291;22461;-27
2022/10/21 15:18:26;;;;;;;5.90;4.00;;;;;;;;;;105710;1295;22595;-27
2022/10/21 15:21:03;;;;;;;4.80;3.50;;;;;;;;;;105741;1301;22485;-27
2022/10/21 15:23:39;;;;;;;5.40;3.60;;;;;;;;;;105666;1300;22475;-27
2022/10/21 15:26:21;;;;;;;4.90;3.30;;;;;;;;;;105704;1288;22521;-27
2022/10/21 15:28:57;;;;;;;5.40;3.60;;;;;;;;;;105728;1293;22475;-27
2022/10/21 15:31:30;;;;;;;5.10;3.30;;;;;;;;;;105676;1293;26401;-27
2022/10/21 15:34:05;;;;;;;5.30;3.50;;;;;;;;;;105659;1291;25288;-27
2022/10/21 15:36:39;;;;;;;5.00;3.40;;;;;;;;;;105705;1284;26503;-27